createdAt,value
2017-09-11T00:04:46.119Z,16.66
2017-09-11T00:07:40.719Z,16.64
2017-09-11T00:10:35.173Z,16.62
2017-09-11T00:13:29.779Z,16.60
2017-09-11T00:16:24.304Z,16.60
2017-09-11T00:19:18.722Z,16.58
2017-09-11T00:22:13.182Z,16.58
2017-09-11T00:25:07.644Z,16.56
2017-09-11T00:28:02.172Z,16.55
2017-09-11T00:36:45.633Z,16.50
2017-09-11T00:39:40.180Z,16.50
2017-09-11T00:42:34.633Z,16.49
2017-09-11T00:45:29.084Z,16.48
2017-09-11T00:48:23.626Z,16.47
2017-09-11T00:51:18.430Z,16.47
2017-09-11T00:54:12.805Z,16.46
2017-09-11T00:57:07.232Z,16.45
2017-09-11T01:00:01.812Z,16.43
2017-09-11T01:02:56.223Z,16.41
2017-09-11T01:05:50.733Z,16.40
2017-09-11T01:08:45.304Z,16.37
2017-09-11T01:11:39.800Z,16.36
2017-09-11T01:14:34.284Z,16.33
2017-09-11T01:17:28.819Z,16.31
2017-09-11T01:20:23.166Z,16.29
2017-09-11T01:23:17.730Z,16.25
2017-09-11T01:26:12.219Z,16.23
2017-09-11T01:29:06.562Z,16.22
2017-09-11T01:32:01.063Z,16.21
2017-09-11T01:34:55.509Z,16.20
2017-09-11T01:37:49.952Z,16.19
2017-09-11T01:40:44.350Z,16.19
2017-09-11T01:43:38.869Z,16.18
2017-09-11T01:46:33.371Z,16.17
2017-09-11T01:49:27.937Z,16.17
2017-09-11T01:52:22.345Z,16.16
2017-09-11T01:55:16.782Z,16.16
2017-09-11T02:01:05.732Z,16.14
2017-09-11T02:04:00.143Z,16.14
2017-09-11T02:06:54.615Z,16.12
2017-09-11T02:09:49.162Z,16.10
2017-09-11T02:12:43.659Z,16.08
2017-09-11T02:15:38.125Z,16.07
2017-09-11T02:18:32.585Z,16.05
2017-09-11T02:21:27.008Z,16.03
2017-09-11T02:24:21.672Z,16.00
2017-09-11T02:27:15.951Z,15.97
2017-09-11T02:30:10.406Z,15.94
2017-09-11T02:33:04.913Z,15.92
2017-09-11T02:35:59.781Z,15.90
2017-09-11T02:38:54.314Z,15.88
2017-09-11T02:41:48.803Z,15.86
2017-09-11T02:44:43.308Z,15.84
2017-09-11T02:47:37.851Z,15.81
2017-09-11T02:50:32.299Z,15.80
2017-09-11T02:53:26.762Z,15.78
2017-09-11T02:56:21.320Z,15.77
2017-09-11T02:59:15.768Z,15.76
2017-09-11T03:06:18.831Z,15.88
2017-09-11T03:09:02.154Z,16.05
2017-09-11T03:11:55.798Z,16.10
2017-09-11T03:14:50.040Z,16.08
2017-09-11T03:17:44.446Z,16.04
2017-09-11T03:20:38.836Z,15.99
2017-09-11T03:23:33.227Z,15.94
2017-09-11T03:26:27.726Z,15.89
2017-09-11T03:29:22.230Z,15.84
2017-09-11T03:40:49.958Z,16.15
2017-09-11T03:43:43.809Z,16.20
2017-09-11T03:46:37.684Z,16.16
2017-09-11T03:52:26.373Z,16.01
2017-09-11T03:55:20.771Z,15.94
2017-09-11T04:05:52.350Z,16.14
2017-09-11T04:08:46.052Z,16.18
2017-09-11T04:14:34.577Z,16.08
2017-09-11T04:17:29.021Z,16.00
2017-09-11T04:20:23.482Z,15.93
2017-09-11T04:23:40.531Z,15.88
2017-09-11T04:31:10.389Z,15.96
2017-09-11T04:33:53.680Z,16.12
2017-09-11T04:36:47.336Z,16.15
2017-09-11T04:39:41.462Z,16.11
2017-09-11T04:42:35.831Z,16.05
2017-09-11T04:45:30.475Z,15.97
2017-09-11T04:48:24.967Z,15.90
2017-09-11T04:56:47.190Z,16.00
2017-09-11T04:59:30.319Z,16.15
2017-09-11T05:02:23.982Z,16.18
2017-09-11T05:05:18.132Z,16.14
2017-09-11T05:08:12.369Z,16.07
2017-09-11T05:11:06.828Z,15.99
2017-09-11T05:16:55.737Z,15.85
2017-09-11T05:20:12.742Z,15.78
2017-09-11T05:27:42.685Z,15.89
2017-09-11T05:30:25.919Z,16.04
2017-09-11T05:33:19.559Z,16.07
2017-09-11T05:36:13.715Z,16.05
2017-09-11T05:39:08.082Z,15.99
2017-09-11T05:42:02.459Z,15.94
2017-09-11T05:44:56.941Z,15.89
2017-09-11T05:47:51.317Z,15.85
2017-09-11T05:55:28.239Z,15.98
2017-09-11T05:58:11.566Z,16.18
2017-09-11T06:01:05.301Z,16.25
2017-09-11T06:03:59.589Z,16.27
2017-09-11T06:06:53.996Z,16.26
2017-09-11T06:09:48.435Z,16.25
2017-09-11T06:12:42.922Z,16.24
2017-09-11T06:15:37.509Z,16.23
2017-09-11T06:18:32.023Z,16.24
2017-09-11T06:21:26.630Z,16.26
2017-09-11T06:24:21.173Z,16.30
2017-09-11T06:27:15.795Z,16.33
2017-09-11T06:33:04.948Z,16.45
2017-09-11T06:35:59.398Z,16.52
2017-09-11T06:40:01.836Z,16.63
2017-09-11T06:42:46.726Z,16.76
2017-09-11T06:45:41.039Z,16.87
2017-09-11T06:48:35.685Z,16.95
2017-09-11T06:51:30.175Z,17.01
2017-09-11T06:54:24.913Z,17.07
2017-09-11T07:00:14.235Z,17.20
2017-09-11T07:03:09.169Z,17.26
2017-09-11T07:06:04.384Z,17.29
2017-09-11T07:08:59.183Z,17.32
2017-09-11T07:11:53.855Z,17.35
2017-09-11T07:14:48.692Z,17.38
2017-09-11T07:17:43.359Z,17.40
2017-09-11T07:20:38.101Z,17.42
2017-09-11T07:23:32.724Z,17.43
2017-09-11T07:26:27.395Z,17.46
2017-09-11T07:32:16.932Z,17.51
2017-09-11T07:35:11.711Z,17.54
2017-09-11T07:38:06.791Z,17.58
2017-09-11T07:41:01.513Z,17.61
2017-09-11T07:43:56.245Z,17.65
2017-09-11T07:46:50.840Z,17.70
2017-09-11T07:49:45.835Z,17.73
2017-09-11T07:52:40.550Z,17.77
2017-09-11T07:55:35.179Z,17.82
2017-09-11T07:58:29.834Z,17.86
2017-09-11T08:01:24.615Z,17.91
2017-09-11T08:04:19.446Z,17.96
2017-09-11T08:07:14.029Z,18.02
2017-09-11T08:10:08.790Z,18.07
2017-09-11T08:13:03.485Z,18.11
2017-09-11T08:15:58.354Z,18.15
2017-09-11T08:18:53.135Z,18.18
2017-09-11T08:21:47.771Z,18.23
2017-09-11T08:24:42.442Z,18.28
2017-09-11T08:27:37.160Z,18.33
2017-09-11T08:30:31.727Z,18.37
2017-09-11T08:33:26.489Z,18.41
2017-09-11T08:36:21.195Z,18.44
2017-09-11T08:39:15.898Z,18.46
2017-09-11T08:42:10.560Z,18.49
2017-09-11T08:45:05.158Z,18.51
2017-09-11T08:47:59.969Z,18.52
2017-09-11T08:50:54.764Z,18.53
2017-09-11T08:53:49.492Z,18.54
2017-09-11T08:56:44.271Z,18.57
2017-09-11T08:59:38.998Z,18.59
2017-09-11T09:02:33.661Z,18.59
2017-09-11T09:05:28.448Z,18.60
2017-09-11T09:08:23.294Z,18.60
2017-09-11T09:11:18.103Z,18.62
2017-09-11T09:14:12.759Z,18.64
2017-09-11T09:17:07.510Z,18.68
2017-09-11T09:22:57.141Z,18.87
2017-09-11T09:25:52.486Z,18.95
2017-09-11T09:28:47.368Z,19.05
2017-09-11T09:31:42.322Z,19.22
2017-09-11T09:34:37.362Z,19.42
2017-09-11T09:37:32.360Z,19.62
2017-09-11T09:43:22.443Z,20.04
2017-09-11T09:46:17.622Z,20.37
2017-09-11T09:49:12.773Z,20.82
2017-09-11T09:52:08.171Z,21.30
2017-09-11T09:55:03.578Z,21.78
2017-09-11T09:57:58.991Z,22.23
2017-09-11T10:00:54.228Z,22.62
2017-09-11T10:03:49.674Z,22.96
2017-09-11T10:06:45.041Z,23.30
2017-09-11T10:09:41.028Z,23.70
2017-09-11T10:12:37.022Z,23.96
2017-09-11T10:15:33.066Z,24.14
2017-09-11T10:18:28.941Z,24.28
2017-09-11T10:21:24.878Z,24.43
2017-09-11T10:24:20.804Z,24.48
2017-09-11T10:27:16.307Z,24.34
2017-09-11T10:30:11.949Z,24.08
2017-09-11T10:33:07.613Z,23.77
2017-09-11T10:36:03.267Z,23.48
2017-09-11T10:38:58.842Z,23.22
2017-09-11T10:41:54.396Z,23.00
2017-09-11T10:44:49.996Z,22.79
2017-09-11T10:47:45.525Z,22.57
2017-09-11T10:50:41.141Z,22.41
2017-09-11T10:53:36.645Z,22.28
2017-09-11T10:56:32.311Z,22.18
2017-09-11T10:59:27.886Z,22.10
2017-09-11T11:02:23.464Z,21.98
2017-09-11T11:05:18.883Z,21.89
2017-09-11T11:08:14.362Z,21.80
2017-09-11T11:11:09.932Z,21.72
2017-09-11T11:14:05.438Z,21.65
2017-09-11T11:17:01.009Z,21.61
2017-09-11T11:19:56.590Z,21.57
2017-09-11T11:22:52.320Z,21.52
2017-09-11T11:25:47.894Z,21.48
2017-09-11T11:28:43.417Z,21.44
2017-09-11T11:31:38.863Z,21.42
2017-09-11T11:34:34.427Z,21.39
2017-09-11T11:37:29.912Z,21.35
2017-09-11T11:43:21.029Z,21.31
2017-09-11T11:46:16.610Z,21.30
2017-09-11T11:49:12.092Z,21.29
2017-09-11T11:52:07.655Z,21.27
2017-09-11T11:55:03.075Z,21.23
2017-09-11T11:57:58.652Z,21.21
2017-09-11T12:00:54.053Z,21.20
2017-09-11T12:03:49.546Z,21.17
2017-09-11T12:06:45.009Z,21.15
2017-09-11T12:09:40.429Z,21.13
2017-09-11T12:12:35.944Z,21.10
2017-09-11T12:15:31.389Z,21.07
2017-09-11T12:18:27.136Z,21.04
2017-09-11T12:21:22.617Z,21.02
2017-09-11T12:24:18.075Z,21.03
2017-09-11T12:27:13.669Z,21.03
2017-09-11T12:30:08.990Z,21.02
2017-09-11T12:33:04.411Z,21.01
2017-09-11T12:35:59.990Z,21.00
2017-09-11T12:38:55.453Z,20.98
2017-09-11T12:41:50.824Z,20.96
2017-09-11T12:44:46.304Z,20.94
2017-09-11T12:47:41.853Z,20.92
2017-09-11T12:50:37.138Z,20.91
2017-09-11T12:56:28.126Z,20.88
2017-09-11T12:59:23.560Z,20.87
2017-09-11T13:02:19.042Z,20.85
2017-09-11T13:05:14.423Z,20.83
2017-09-11T13:08:09.930Z,20.78
2017-09-11T13:11:05.245Z,20.73
2017-09-11T13:14:00.663Z,20.68
2017-09-11T13:16:56.063Z,20.65
2017-09-11T13:19:51.542Z,20.62
2017-09-11T13:22:46.926Z,20.58
2017-09-11T13:25:42.354Z,20.56
2017-09-11T13:28:37.808Z,20.54
2017-09-11T13:31:33.188Z,20.51
2017-09-11T13:34:28.627Z,20.48
2017-09-11T13:37:23.986Z,20.47
2017-09-11T13:40:19.306Z,20.46
2017-09-11T13:43:14.634Z,20.46
2017-09-11T13:46:09.989Z,20.44
2017-09-11T13:49:05.686Z,20.41
2017-09-11T13:52:01.173Z,20.40
2017-09-11T13:54:56.489Z,20.38
2017-09-11T13:57:51.990Z,20.37
2017-09-11T14:00:47.305Z,20.34
2017-09-11T14:03:42.753Z,20.32
2017-09-11T14:06:38.582Z,20.31
2017-09-11T14:09:34.129Z,20.32
2017-09-11T14:12:29.577Z,20.33
2017-09-11T14:15:24.938Z,20.33
2017-09-11T14:18:20.362Z,20.33
2017-09-11T14:21:15.770Z,20.33
2017-09-11T14:24:11.291Z,20.33
2017-09-11T14:27:06.720Z,20.33
2017-09-11T14:30:02.171Z,20.32
2017-09-11T14:32:57.530Z,20.32
2017-09-11T14:35:52.951Z,20.32
2017-09-11T14:38:48.398Z,20.33
2017-09-11T14:41:43.693Z,20.34
2017-09-11T14:44:39.201Z,20.35
2017-09-11T14:47:34.696Z,20.36
2017-09-11T14:50:30.244Z,20.36
2017-09-11T14:53:25.642Z,20.37
2017-09-11T14:56:21.035Z,20.38
2017-09-11T14:59:16.416Z,20.38
2017-09-11T15:02:11.858Z,20.38
2017-09-11T15:05:07.291Z,20.36
2017-09-11T15:08:02.719Z,20.34
2017-09-11T15:10:58.091Z,20.33
2017-09-11T15:13:53.496Z,20.32
2017-09-11T15:16:48.904Z,20.31
2017-09-11T15:19:44.243Z,20.29
2017-09-11T15:22:39.665Z,20.27
2017-09-11T15:25:35.206Z,20.27
2017-09-11T15:28:30.510Z,20.24
2017-09-11T15:31:25.846Z,20.23
2017-09-11T15:34:21.293Z,20.21
2017-09-11T15:37:16.645Z,20.19
2017-09-11T15:40:12.235Z,20.18
2017-09-11T15:43:07.598Z,20.18
2017-09-11T15:46:03.153Z,20.16
2017-09-11T15:48:58.546Z,20.14
2017-09-11T15:51:54.017Z,20.13
2017-09-11T15:54:49.373Z,20.11
2017-09-11T15:57:44.885Z,20.11
2017-09-11T16:00:40.363Z,20.10
2017-09-11T16:03:35.659Z,20.09
2017-09-11T16:06:30.987Z,20.07
2017-09-11T16:09:26.450Z,20.06
2017-09-11T16:12:21.821Z,20.03
2017-09-11T16:15:17.348Z,20.03
2017-09-11T16:18:12.771Z,20.02
2017-09-11T16:21:08.128Z,20.00
2017-09-11T16:24:03.449Z,19.99
2017-09-11T16:26:58.832Z,19.97
2017-09-11T16:29:54.203Z,19.95
2017-09-11T16:32:49.617Z,19.94
2017-09-11T16:35:45.024Z,19.92
2017-09-11T16:38:40.400Z,19.91
2017-09-11T16:41:35.643Z,19.89
2017-09-11T16:44:31.000Z,19.87
2017-09-11T16:47:26.434Z,19.85
2017-09-11T16:50:21.801Z,19.82
2017-09-11T16:53:17.119Z,19.81
2017-09-11T16:56:12.523Z,19.79
2017-09-11T16:59:07.948Z,19.77
2017-09-11T17:02:03.333Z,19.75
2017-09-11T17:04:58.688Z,19.73
2017-09-11T17:07:54.032Z,19.72
2017-09-11T17:10:49.319Z,19.69
2017-09-11T17:13:44.702Z,19.67
2017-09-11T17:16:39.998Z,19.66
2017-09-11T17:19:35.338Z,19.64
2017-09-11T17:22:30.568Z,19.62
2017-09-11T17:25:26.057Z,19.60
2017-09-11T17:28:21.439Z,19.58
2017-09-11T17:31:16.739Z,19.56
2017-09-11T17:34:12.096Z,19.54
2017-09-11T17:37:07.371Z,19.53
2017-09-11T17:40:02.678Z,19.52
2017-09-11T17:42:58.006Z,19.51
2017-09-11T17:45:53.305Z,19.50
2017-09-11T17:48:48.705Z,19.48
2017-09-11T17:51:44.067Z,19.47
2017-09-11T17:54:39.449Z,19.45
2017-09-11T17:57:34.849Z,19.44
2017-09-11T18:00:30.288Z,19.43
2017-09-11T18:03:25.590Z,19.43
2017-09-11T18:06:20.876Z,19.41
2017-09-11T18:09:16.256Z,19.40
2017-09-11T18:12:11.577Z,19.39
2017-09-11T18:15:06.972Z,19.37
2017-09-11T18:18:02.305Z,19.35
2017-09-11T18:20:57.559Z,19.34
2017-09-11T18:23:52.895Z,19.32
2017-09-11T18:26:48.129Z,19.30
2017-09-11T18:29:43.383Z,19.29
2017-09-11T18:32:38.663Z,19.28
2017-09-11T18:35:33.900Z,19.27
2017-09-11T18:38:29.309Z,19.25
2017-09-11T18:41:24.573Z,19.24
2017-09-11T18:44:19.938Z,19.22
2017-09-11T18:47:15.147Z,19.19
2017-09-11T18:50:10.468Z,19.17
2017-09-11T18:53:05.728Z,19.16
2017-09-11T18:56:01.280Z,19.14
2017-09-11T18:58:56.551Z,19.13
2017-09-11T19:01:52.408Z,19.11
2017-09-11T19:04:47.727Z,19.10
2017-09-11T19:07:43.094Z,19.08
2017-09-11T19:10:38.425Z,19.07
2017-09-11T19:13:33.772Z,19.05
2017-09-11T19:16:29.081Z,19.04
2017-09-11T19:22:19.789Z,19.01
2017-09-11T19:25:15.166Z,18.99
2017-09-11T19:28:10.458Z,18.98
2017-09-11T19:31:05.730Z,18.96
2017-09-11T19:34:00.996Z,18.95
2017-09-11T19:36:56.273Z,18.94
2017-09-11T19:39:51.477Z,18.93
2017-09-11T19:42:46.697Z,18.91
2017-09-11T19:45:41.936Z,18.90
2017-09-11T19:48:37.127Z,18.88
2017-09-11T19:51:32.290Z,18.87
2017-09-11T19:54:27.542Z,18.85
2017-09-11T19:57:23.096Z,18.84
2017-09-11T20:00:18.335Z,18.82
2017-09-11T20:03:13.562Z,18.81
2017-09-11T20:06:08.861Z,18.79
2017-09-11T20:09:04.087Z,18.77
2017-09-11T20:11:59.301Z,18.74
2017-09-11T20:17:50.121Z,18.69
2017-09-11T20:20:45.492Z,18.66
2017-09-11T20:23:40.588Z,18.63
2017-09-11T20:26:35.827Z,18.60
2017-09-11T20:29:31.148Z,18.57
2017-09-11T20:32:26.428Z,18.55
2017-09-11T20:35:21.700Z,18.52
2017-09-11T20:38:16.908Z,18.48
2017-09-11T20:41:12.086Z,18.44
2017-09-11T20:44:07.346Z,18.41
2017-09-11T20:47:02.634Z,18.38
2017-09-11T20:49:57.848Z,18.37
2017-09-11T20:52:53.123Z,18.34
2017-09-11T20:55:48.273Z,18.31
2017-09-11T20:58:43.512Z,18.28
2017-09-11T21:01:38.899Z,18.25
2017-09-11T21:04:34.141Z,18.21
2017-09-11T21:10:24.767Z,18.13
2017-09-11T21:13:19.937Z,18.09
2017-09-11T21:16:15.187Z,18.06
2017-09-11T21:19:10.425Z,18.02
2017-09-11T21:22:05.691Z,17.99
2017-09-11T21:27:56.278Z,17.93
2017-09-11T21:30:51.514Z,17.90
2017-09-11T21:33:46.726Z,17.87
2017-09-11T21:36:41.985Z,17.83
2017-09-11T21:39:37.164Z,17.80
2017-09-11T21:42:32.469Z,17.76
2017-09-11T21:45:27.761Z,17.71
2017-09-11T21:48:22.968Z,17.68
2017-09-11T21:51:18.266Z,17.64
2017-09-11T21:54:13.606Z,17.61
2017-09-11T21:57:08.868Z,17.58
2017-09-11T22:00:04.017Z,17.54
2017-09-11T22:02:59.189Z,17.50
2017-09-11T22:08:49.599Z,17.42
2017-09-11T22:11:44.916Z,17.40
2017-09-11T22:14:40.135Z,17.36
2017-09-11T22:17:35.373Z,17.33
2017-09-11T22:20:30.579Z,17.31
2017-09-11T22:23:25.812Z,17.28
2017-09-11T22:26:20.957Z,17.25
2017-09-11T22:29:16.063Z,17.24
2017-09-11T22:32:11.258Z,17.21
2017-09-11T22:35:06.509Z,17.18
2017-09-11T22:38:01.656Z,17.15
2017-09-11T22:40:56.814Z,17.13
2017-09-11T22:43:51.924Z,17.11
2017-09-11T22:46:47.084Z,17.08
2017-09-11T22:49:42.237Z,17.06
2017-09-11T22:52:37.314Z,17.04
2017-09-11T22:55:32.382Z,17.01
2017-09-11T22:58:27.626Z,16.99
2017-09-11T23:01:22.752Z,16.96
2017-09-11T23:04:17.833Z,16.93
2017-09-11T23:07:12.947Z,16.89
2017-09-11T23:10:08.035Z,16.87
2017-09-11T23:13:03.134Z,16.85
2017-09-11T23:15:58.165Z,16.82
2017-09-11T23:18:53.221Z,16.80
2017-09-11T23:21:48.312Z,16.77
2017-09-11T23:24:43.451Z,16.76
2017-09-11T23:27:38.558Z,16.75
2017-09-11T23:30:33.663Z,16.74
2017-09-11T23:33:28.733Z,16.73
2017-09-11T23:36:23.879Z,16.71
2017-09-11T23:39:19.002Z,16.69
2017-09-11T23:42:14.127Z,16.68
2017-09-11T23:45:09.195Z,16.67
2017-09-11T23:48:04.338Z,16.66
2017-09-11T23:50:59.486Z,16.64
2017-09-11T23:56:49.606Z,16.60
2017-09-11T23:59:44.724Z,16.57
